PILOTS ONLINE: 299    ATC ONLINE: 30

NFFN - Nadi International Airport

Location

IATA NAN
City Nadi
Country  Fiji
Latitude 17° 45' 19" S
Longitude 177° 26' 34" E
Elevation 59 ft
Type Medium Airport

Runways

02/20 10739 ft / 150 ft
09/27 7007 ft / 150 ft

Weather

METAR
2014/07/22 23:00
NFFN 222300Z 12006KT 9999 -RA FEW026 SCT048 BKN100 23/18 Q1012 NOSIG
TAF
2014/07/22 18:03
TAF NFFN 221701Z 2218/2318 15008KT 9999 -SHRA FEW018 SCT045 BKN100

Outbound flights

Inbound flights